Time;durP1;ratioP1;P1;durP2;ratioP2;P2;SDS_P1;SDS_P2;PMS_P1;PMS_P2;Temp;Humidity;BMP_temperature;BMP_pressure;BME280_temperature;BME280_humidity;BME280_pressure;Samples;Min_cycle;Max_cycle;Signal;HPM_P1;HPM_P2
2023/05/31 00:02:03;;;;;;;4.90;3.05;;;10.20;99.90;;;;;;5069314;28;20182;-63
2023/05/31 00:04:28;;;;;;;6.15;3.20;;;10.20;99.90;;;;;;5053694;28;20040;-62
2023/05/31 00:06:54;;;;;;;5.28;3.22;;;10.20;99.90;;;;;;5070192;28;20043;-61
2023/05/31 00:09:20;;;;;;;6.90;3.70;;;10.10;99.90;;;;;;5053463;28;20059;-63
2023/05/31 00:11:45;;;;;;;6.07;3.10;;;10.10;99.90;;;;;;5070791;28;20036;-62
2023/05/31 00:14:11;;;;;;;5.72;3.25;;;10.10;99.90;;;;;;5070137;28;20504;-61
2023/05/31 00:16:37;;;;;;;7.13;2.95;;;10.00;99.90;;;;;;5071710;28;20044;-64
2023/05/31 00:19:02;;;;;;;5.55;3.30;;;10.00;99.90;;;;;;5069937;28;20044;-62
2023/05/31 00:21:28;;;;;;;4.40;3.15;;;10.00;99.90;;;;;;5068340;28;20055;-66
2023/05/31 00:23:53;;;;;;;5.22;3.20;;;10.00;99.90;;;;;;5069593;28;20052;-64
2023/05/31 00:26:19;;;;;;;4.78;2.92;;;9.90;99.90;;;;;;5071243;28;20036;-61
2023/05/31 00:28:45;;;;;;;5.00;3.22;;;9.90;99.90;;;;;;5070049;28;20044;-62
2023/05/31 00:31:10;;;;;;;5.95;3.35;;;9.90;99.90;;;;;;5069151;28;20086;-62
2023/05/31 00:33:36;;;;;;;5.60;3.60;;;9.90;99.90;;;;;;5070693;28;20098;-61
2023/05/31 00:36:02;;;;;;;6.43;3.17;;;9.80;99.90;;;;;;5070797;28;20036;-62
2023/05/31 00:38:28;;;;;;;6.28;3.42;;;9.80;99.90;;;;;;5069922;28;20048;-62
2023/05/31 00:40:53;;;;;;;5.22;3.40;;;9.80;99.90;;;;;;5068186;28;20036;-61
2023/05/31 00:43:19;;;;;;;5.25;3.40;;;9.80;99.90;;;;;;5070635;28;20076;-62
2023/05/31 00:45:45;;;;;;;6.03;3.78;;;9.80;99.90;;;;;;5069844;28;20120;-64
2023/05/31 00:48:11;;;;;;;5.65;3.25;;;9.70;99.90;;;;;;5069394;28;20130;-61
2023/05/31 00:50:37;;;;;;;5.47;3.15;;;9.70;99.90;;;;;;5070803;28;20041;-62
2023/05/31 00:53:03;;;;;;;7.47;3.50;;;9.70;99.90;;;;;;5068161;28;20396;-61
2023/05/31 00:55:30;;;;;;;6.95;3.25;;;9.60;99.90;;;;;;5069230;28;20036;-63
2023/05/31 00:57:56;;;;;;;5.05;3.22;;;9.70;99.90;;;;;;5069486;28;20067;-64
2023/05/31 01:00:22;;;;;;;5.32;2.97;;;9.60;99.90;;;;;;5069060;28;20495;-62
2023/05/31 01:02:50;;;;;;;5.25;3.38;;;9.60;99.90;;;;;;5050497;28;20064;-62
2023/05/31 01:05:16;;;;;;;4.18;3.10;;;9.60;99.90;;;;;;5070144;28;20036;-66
2023/05/31 01:07:42;;;;;;;4.82;3.15;;;9.60;99.90;;;;;;5068372;28;20538;-62
2023/05/31 01:10:08;;;;;;;4.60;3.00;;;9.50;99.90;;;;;;5068658;28;20094;-64
2023/05/31 01:12:46;;;;;;;5.40;3.35;;;9.50;99.90;;;;;;5069073;28;20055;-63
2023/05/31 01:15:15;;;;;;;6.40;3.95;;;9.50;99.90;;;;;;5097660;28;20060;-62
2023/05/31 01:18:02;;;;;;;4.65;3.38;;;9.50;99.90;;;;;;5067973;28;20139;-63
2023/05/31 01:20:35;;;;;;;7.35;3.25;;;9.40;99.90;;;;;;5066916;28;20426;-61
2023/05/31 01:23:23;;;;;;;;;;;9.40;99.90;;;;;;5069668;28;20048;-63
2023/05/31 01:26:04;;;;;;;5.35;3.30;;;9.40;99.90;;;;;;5102762;28;19939;-64
2023/05/31 01:28:33;;;;;;;5.20;3.10;;;9.30;99.90;;;;;;5068785;28;20055;-62
2023/05/31 01:31:02;;;;;;;4.53;3.03;;;9.30;99.90;;;;;;5068848;28;20495;-66
2023/05/31 01:33:29;;;;;;;6.60;3.20;;;9.30;99.90;;;;;;5068407;28;20067;-65
2023/05/31 01:35:54;;;;;;;6.82;3.50;;;9.30;99.90;;;;;;5067025;28;20376;-63
2023/05/31 01:38:20;;;;;;;5.82;3.30;;;9.30;99.90;;;;;;5067902;28;20043;-63
2023/05/31 01:40:46;;;;;;;5.75;3.50;;;9.30;99.90;;;;;;5068984;28;20047;-64
2023/05/31 01:43:12;;;;;;;5.72;3.72;;;9.20;99.90;;;;;;5068547;28;20507;-62
2023/05/31 01:45:39;;;;;;;6.43;3.50;;;9.20;99.90;;;;;;5066655;28;20040;-62
2023/05/31 01:48:07;;;;;;;4.75;3.58;;;9.20;99.90;;;;;;5066980;28;20052;-62
2023/05/31 01:50:35;;;;;;;5.85;3.80;;;9.20;99.90;;;;;;5067358;28;20079;-62
2023/05/31 01:53:00;;;;;;;8.10;3.45;;;9.20;99.90;;;;;;5068482;28;20405;-64
2023/05/31 01:55:27;;;;;;;7.03;3.95;;;9.10;99.90;;;;;;5068144;28;20289;-63
2023/05/31 01:57:55;;;;;;;6.72;3.92;;;9.10;99.90;;;;;;5066265;28;20403;-61
2023/05/31 02:00:25;;;;;;;6.88;3.60;;;9.10;99.90;;;;;;5068382;28;20111;-64
2023/05/31 02:02:51;;;;;;;5.95;4.00;;;9.10;99.90;;;;;;5067969;28;20036;-65
2023/05/31 02:05:17;;;;;;;6.20;3.90;;;9.10;99.90;;;;;;5069066;28;20044;-63
2023/05/31 02:07:44;;;;;;;4.68;3.65;;;9.10;99.90;;;;;;5067629;28;20036;-62
2023/05/31 02:10:10;;;;;;;5.30;3.53;;;9.10;99.90;;;;;;5065016;28;20048;-61
2023/05/31 02:12:37;;;;;;;5.45;4.20;;;9.10;99.90;;;;;;5069951;28;20483;-63
2023/05/31 02:15:03;;;;;;;5.55;3.72;;;9.00;99.90;;;;;;5063718;28;20028;-62
2023/05/31 02:17:32;;;;;;;8.45;4.38;;;9.00;99.90;;;;;;5069298;28;20123;-62
2023/05/31 02:19:59;;;;;;;6.32;4.03;;;9.00;99.90;;;;;;5068538;28;20449;-61
2023/05/31 02:22:25;;;;;;;7.25;4.07;;;9.00;99.90;;;;;;5066258;28;20032;-63
2023/05/31 02:24:50;;;;;;;7.07;4.18;;;9.00;99.90;;;;;;5068811;28;20051;-62
2023/05/31 02:27:16;;;;;;;6.63;3.95;;;8.90;99.90;;;;;;5069850;28;20479;-63
2023/05/31 02:29:45;;;;;;;6.07;3.70;;;8.90;99.90;;;;;;5068972;28;20090;-63
2023/05/31 02:32:11;;;;;;;6.88;4.18;;;8.90;99.90;;;;;;5068026;28;20119;-63
2023/05/31 02:34:37;;;;;;;6.10;3.75;;;8.90;99.90;;;;;;5067605;28;20135;-63
2023/05/31 02:37:03;;;;;;;7.85;4.45;;;8.80;99.90;;;;;;5065260;28;20044;-63
2023/05/31 02:39:29;;;;;;;8.93;4.22;;;8.80;99.90;;;;;;5066363;28;20072;-63
2023/05/31 02:41:54;;;;;;;6.15;4.40;;;8.80;99.90;;;;;;5067175;28;20491;-64
2023/05/31 02:44:21;;;;;;;5.68;3.90;;;8.70;99.90;;;;;;5065466;28;20033;-64
2023/05/31 02:46:46;;;;;;;7.07;4.03;;;8.60;99.90;;;;;;5067848;28;20056;-63
2023/05/31 02:49:12;;;;;;;5.25;3.65;;;8.60;99.90;;;;;;5066518;28;20045;-62
2023/05/31 02:51:38;;;;;;;6.70;4.40;;;8.60;99.90;;;;;;5068737;28;20045;-63
2023/05/31 02:54:03;;;;;;;6.78;4.38;;;8.60;99.90;;;;;;5067533;28;20104;-64
2023/05/31 02:56:29;;;;;;;5.90;4.15;;;8.50;99.90;;;;;;5068248;28;20032;-61
2023/05/31 02:58:56;;;;;;;6.78;4.57;;;8.50;99.90;;;;;;5071762;28;20044;-63
2023/05/31 03:01:21;;;;;;;8.02;4.78;;;8.60;99.90;;;;;;5070723;28;20043;-60
2023/05/31 03:03:47;;;;;;;10.60;5.45;;;8.60;99.90;;;;;;5072127;28;20566;-62
2023/05/31 03:06:16;;;;;;;8.65;4.53;;;8.60;99.90;;;;;;5073248;28;20040;-61
2023/05/31 03:08:42;;;;;;;7.85;4.88;;;8.60;99.90;;;;;;5054951;28;20059;-64
2023/05/31 03:11:08;;;;;;;7.70;5.07;;;8.50;99.90;;;;;;5070052;28;20033;-62
2023/05/31 03:13:33;;;;;;;8.85;4.20;;;8.60;99.90;;;;;;5068543;28;20094;-64
2023/05/31 03:16:00;;;;;;;6.43;4.95;;;8.60;99.90;;;;;;5071901;28;20036;-66
2023/05/31 03:18:26;;;;;;;7.88;4.93;;;8.60;99.90;;;;;;5071378;28;20080;-64
2023/05/31 03:20:51;;;;;;;9.07;4.80;;;8.50;99.90;;;;;;5070029;28;20087;-64
2023/05/31 03:23:17;;;;;;;7.45;4.88;;;8.60;99.90;;;;;;5072607;28;20825;-63
2023/05/31 03:25:42;;;;;;;8.70;5.65;;;8.60;99.90;;;;;;5071495;28;20111;-63
2023/05/31 03:28:08;;;;;;;8.85;5.65;;;8.60;99.90;;;;;;5054549;28;20053;-61
2023/05/31 03:30:34;;;;;;;9.98;6.35;;;8.60;99.90;;;;;;5071050;28;20032;-61
2023/05/31 03:33:00;;;;;;;11.85;6.60;;;8.50;99.90;;;;;;5067445;28;20040;-61
2023/05/31 03:35:25;;;;;;;10.35;6.45;;;8.50;99.90;;;;;;5068180;28;20048;-63
2023/05/31 03:37:52;;;;;;;10.55;6.15;;;8.50;99.90;;;;;;5070912;28;20036;-63
2023/05/31 03:40:18;;;;;;;10.20;6.13;;;8.50;99.90;;;;;;5073985;28;20036;-60
2023/05/31 03:42:44;;;;;;;8.25;5.57;;;8.60;99.90;;;;;;5069881;28;20372;-62
2023/05/31 03:45:09;;;;;;;10.20;6.05;;;8.60;99.90;;;;;;5053021;28;20044;-64
2023/05/31 03:47:35;;;;;;;7.75;5.20;;;8.60;99.90;;;;;;5068698;28;20555;-63
2023/05/31 03:50:03;;;;;;;10.07;5.78;;;8.60;99.90;;;;;;5072070;28;20046;-64
2023/05/31 03:52:29;;;;;;;8.73;5.20;;;8.70;99.90;;;;;;5069067;28;20503;-64
2023/05/31 03:54:55;;;;;;;9.65;5.30;;;8.70;99.90;;;;;;5070259;28;20072;-62
2023/05/31 03:57:21;;;;;;;8.07;5.40;;;8.80;99.90;;;;;;5068769;28;20048;-61
2023/05/31 03:59:47;;;;;;;7.63;5.57;;;8.80;99.90;;;;;;5072948;28;20040;-62
2023/05/31 04:02:12;;;;;;;9.38;5.40;;;8.80;99.90;;;;;;5070576;28;20048;-61
2023/05/31 04:04:38;;;;;;;8.10;5.03;;;8.90;99.90;;;;;;5068171;28;20040;-64
2023/05/31 04:07:04;;;;;;;9.25;5.90;;;9.00;99.90;;;;;;5071042;28;20045;-62
2023/05/31 04:09:29;;;;;;;9.45;5.40;;;9.00;99.90;;;;;;5070120;28;20039;-62
2023/05/31 04:11:55;;;;;;;7.75;5.75;;;9.10;99.90;;;;;;5054311;28;20076;-65
2023/05/31 04:14:21;;;;;;;10.40;5.55;;;9.10;99.90;;;;;;5069843;28;20044;-63
2023/05/31 04:16:46;;;;;;;9.25;5.68;;;9.20;99.90;;;;;;5070346;28;20036;-64
2023/05/31 04:19:12;;;;;;;12.98;6.22;;;9.20;99.90;;;;;;5070650;28;20559;-64
2023/05/31 04:21:38;;;;;;;11.18;5.97;;;9.30;99.90;;;;;;5070015;28;20138;-62
2023/05/31 04:24:04;;;;;;;8.75;5.40;;;9.30;99.90;;;;;;5070157;28;20046;-62
2023/05/31 04:26:32;;;;;;;13.13;6.30;;;9.40;99.90;;;;;;5070455;28;20090;-64
2023/05/31 04:28:58;;;;;;;11.88;5.90;;;9.40;99.90;;;;;;5068950;28;20081;-63
2023/05/31 04:31:24;;;;;;;9.77;5.80;;;9.50;99.90;;;;;;5069952;28;20102;-64
2023/05/31 04:33:53;;;;;;;12.70;5.82;;;9.60;99.90;;;;;;5070506;28;20398;-65
2023/05/31 04:36:20;;;;;;;8.68;6.00;;;9.60;99.90;;;;;;5068590;28;20127;-64
2023/05/31 04:38:47;;;;;;;11.63;6.10;;;9.70;99.90;;;;;;5069956;28;20044;-63
2023/05/31 04:41:14;;;;;;;8.80;5.20;;;9.80;99.90;;;;;;5070918;28;20063;-64
2023/05/31 04:43:40;;;;;;;12.95;5.60;;;9.80;99.90;;;;;;5070579;28;20036;-61
2023/05/31 04:46:09;;;;;;;12.50;6.63;;;10.00;99.90;;;;;;5070410;28;20040;-63
2023/05/31 04:48:35;;;;;;;11.77;6.65;;;10.00;99.90;;;;;;5050791;28;20411;-63
2023/05/31 04:51:01;;;;;;;11.95;6.70;;;10.10;99.90;;;;;;5068893;28;20076;-63
2023/05/31 04:53:26;;;;;;;11.85;6.30;;;10.20;99.90;;;;;;5071124;28;20091;-64
2023/05/31 04:55:52;;;;;;;12.90;6.50;;;10.30;99.90;;;;;;5069705;28;20047;-63
2023/05/31 04:58:19;;;;;;;13.05;6.90;;;10.40;99.90;;;;;;5068630;28;20044;-63
2023/05/31 05:00:45;;;;;;;12.20;6.88;;;10.50;99.90;;;;;;5067769;28;20521;-62
2023/05/31 05:03:11;;;;;;;13.35;6.63;;;10.60;99.90;;;;;;5095913;28;20495;-64
2023/05/31 05:05:37;;;;;;;13.57;7.10;;;10.70;99.90;;;;;;5071637;28;20035;-62
2023/05/31 05:08:03;;;;;;;11.85;7.20;;;10.80;99.90;;;;;;5069391;28;20039;-64
2023/05/31 05:10:29;;;;;;;10.40;6.15;;;10.90;99.90;;;;;;5069272;28;20033;-63
2023/05/31 05:12:54;;;;;;;10.57;6.13;;;10.90;99.90;;;;;;5094883;28;20127;-61
2023/05/31 05:15:20;;;;;;;14.13;6.25;;;11.00;99.90;;;;;;5068738;28;20033;-63
2023/05/31 05:17:46;;;;;;;12.63;6.93;;;11.10;99.90;;;;;;5066028;28;20032;-63
2023/05/31 05:20:12;;;;;;;10.23;6.50;;;11.20;99.90;;;;;;5067941;28;20395;-61
2023/05/31 05:22:38;;;;;;;13.40;6.82;;;11.30;99.90;;;;;;5069199;28;20028;-64
2023/05/31 05:25:04;;;;;;;12.80;6.88;;;11.40;99.90;;;;;;5069011;28;20037;-62
2023/05/31 05:27:30;;;;;;;13.18;6.47;;;11.60;99.90;;;;;;5066360;28;20097;-61
2023/05/31 05:29:55;;;;;;;11.23;6.60;;;11.70;99.90;;;;;;5067307;28;20040;-63
2023/05/31 05:32:21;;;;;;;11.32;6.38;;;11.80;99.90;;;;;;5071070;28;20045;-63
2023/05/31 05:34:47;;;;;;;17.45;7.38;;;12.00;99.90;;;;;;5067084;28;20060;-63
2023/05/31 05:37:12;;;;;;;13.85;7.38;;;12.10;99.90;;;;;;5065817;28;20391;-62
2023/05/31 05:39:38;;;;;;;12.55;7.43;;;12.20;99.90;;;;;;5066350;28;20036;-62
2023/05/31 05:42:04;;;;;;;16.15;7.78;;;12.30;99.90;;;;;;5067363;28;20052;-63
2023/05/31 05:44:29;;;;;;;13.30;7.57;;;12.40;99.90;;;;;;5051493;28;20053;-62
2023/05/31 05:46:56;;;;;;;11.15;6.63;;;12.50;99.90;;;;;;5069352;28;20142;-64
2023/05/31 05:49:21;;;;;;;13.63;6.70;;;12.60;99.90;;;;;;5069723;28;20044;-65
2023/05/31 05:51:47;;;;;;;12.55;6.53;;;12.70;99.90;;;;;;5068580;28;20439;-63
2023/05/31 05:54:13;;;;;;;14.07;6.90;;;12.90;99.90;;;;;;5069163;28;20163;-64
2023/05/31 05:56:39;;;;;;;11.63;6.40;;;13.00;99.90;;;;;;5065967;28;20029;-64
2023/05/31 05:59:04;;;;;;;10.43;5.60;;;13.20;99.90;;;;;;5051299;28;20048;-64
2023/05/31 06:01:30;;;;;;;12.35;6.70;;;13.40;99.90;;;;;;5069183;28;20034;-66
2023/05/31 06:03:56;;;;;;;11.57;5.93;;;13.50;99.90;;;;;;5069584;28;20036;-61
2023/05/31 06:06:21;;;;;;;15.52;6.82;;;13.60;99.90;;;;;;5066479;28;20502;-63
2023/05/31 06:08:47;;;;;;;9.40;5.85;;;13.70;99.90;;;;;;5067783;28;20376;-65
2023/05/31 06:11:18;;;;;;;10.88;5.72;;;13.80;99.90;;;;;;5067636;28;20490;-61
2023/05/31 06:13:44;;;;;;;11.45;6.00;;;13.90;99.90;;;;;;5069304;28;20475;-64
2023/05/31 06:16:10;;;;;;;10.60;5.88;;;14.10;99.90;;;;;;5070176;28;20062;-62
2023/05/31 06:18:35;;;;;;;8.18;5.43;;;14.20;99.90;;;;;;5068433;28;20091;-62
2023/05/31 06:21:01;;;;;;;10.70;6.15;;;14.30;99.90;;;;;;5068297;28;20045;-63
2023/05/31 06:23:28;;;;;;;12.50;5.65;;;14.40;99.90;;;;;;5068185;28;20127;-64
2023/05/31 06:25:53;;;;;;;7.95;5.40;;;14.50;99.90;;;;;;5068010;28;20040;-63
2023/05/31 06:28:19;;;;;;;11.40;5.57;;;14.60;99.90;;;;;;5067390;28;20040;-65
2023/05/31 06:30:45;;;;;;;9.95;5.38;;;14.80;99.90;;;;;;5064396;28;20033;-64
2023/05/31 06:33:11;;;;;;;12.45;5.72;;;14.90;99.90;;;;;;5064229;28;20048;-64
2023/05/31 06:35:36;;;;;;;9.48;4.93;;;15.10;99.90;;;;;;5050890;28;20045;-63
2023/05/31 06:38:04;;;;;;;9.38;4.72;;;15.30;99.90;;;;;;5066450;28;20399;-63
2023/05/31 06:40:30;;;;;;;10.35;4.70;;;15.30;99.90;;;;;;5068916;28;20517;-62
2023/05/31 06:42:56;;;;;;;11.35;4.75;;;15.50;99.90;;;;;;5067556;28;20072;-62
2023/05/31 06:45:21;;;;;;;8.13;4.72;;;15.60;99.90;;;;;;5068762;28;20044;-63
2023/05/31 06:47:47;;;;;;;9.77;4.60;;;15.60;99.90;;;;;;5067703;28;20792;-61
2023/05/31 06:50:13;;;;;;;6.97;4.47;;;15.80;99.90;;;;;;5065762;28;20541;-63
2023/05/31 06:52:41;;;;;;;11.07;4.50;;;15.90;99.90;;;;;;5066981;28;20123;-64
2023/05/31 06:55:08;;;;;;;9.45;4.13;;;16.10;99.90;;;;;;5068808;28;20468;-64
2023/05/31 06:57:33;;;;;;;6.75;4.30;;;16.20;99.90;;;;;;5068699;28;20055;-63
2023/05/31 06:59:59;;;;;;;10.02;4.18;;;16.20;99.90;;;;;;5066376;28;20052;-65
2023/05/31 07:02:27;;;;;;;10.95;4.50;;;16.40;99.90;;;;;;5067429;28;20032;-64
2023/05/31 07:04:52;;;;;;;7.35;4.28;;;16.50;99.90;;;;;;5068539;28;20056;-62
2023/05/31 07:07:18;;;;;;;12.93;4.82;;;16.70;99.90;;;;;;5067287;28;20036;-63
2023/05/31 07:09:43;;;;;;;7.80;4.25;;;16.70;99.90;;;;;;5067245;28;20376;-63
2023/05/31 07:12:09;;;;;;;10.13;4.78;;;16.80;99.90;;;;;;5066791;28;20041;-62
2023/05/31 07:14:35;;;;;;;9.10;4.88;;;17.00;99.90;;;;;;5068239;28;20386;-65
2023/05/31 07:17:01;;;;;;;10.70;4.70;;;17.10;99.90;;;;;;5067860;28;20053;-66
2023/05/31 07:19:29;;;;;;;7.40;4.40;;;17.20;99.90;;;;;;5050853;28;20183;-61
2023/05/31 07:21:54;;;;;;;10.25;4.65;;;17.40;99.90;;;;;;5067154;28;20419;-62
2023/05/31 07:24:20;;;;;;;8.05;4.60;;;17.50;99.90;;;;;;5065572;28;20075;-64
2023/05/31 07:26:45;;;;;;;8.13;4.68;;;17.50;99.90;;;;;;5068020;28;20043;-66
2023/05/31 07:29:12;;;;;;;8.88;4.70;;;17.60;99.90;;;;;;5068586;28;20072;-61
2023/05/31 07:31:37;;;;;;;9.20;4.63;;;17.60;99.90;;;;;;5068475;28;20041;-64
2023/05/31 07:34:03;;;;;;;9.35;5.00;;;17.70;99.90;;;;;;5068473;28;20036;-65
2023/05/31 07:36:29;;;;;;;7.25;4.20;;;17.80;99.90;;;;;;5065832;28;20044;-64
2023/05/31 07:38:54;;;;;;;9.85;4.68;;;17.80;99.90;;;;;;5063618;28;20049;-64
2023/05/31 07:41:20;;;;;;;11.70;5.15;;;18.00;99.90;;;;;;5066418;28;20146;-62
2023/05/31 07:43:46;;;;;;;8.25;4.35;;;18.10;99.90;;;;;;5069389;28;20033;-64
2023/05/31 07:46:12;;;;;;;8.05;4.20;;;18.30;99.90;;;;;;5069112;28;20048;-65
2023/05/31 07:48:38;;;;;;;9.07;4.35;;;18.40;99.90;;;;;;5069798;28;20139;-65
2023/05/31 07:51:04;;;;;;;8.23;4.60;;;18.60;99.90;;;;;;5071243;28;20043;-63
2023/05/31 07:53:29;;;;;;;8.32;4.75;;;18.80;99.90;;;;;;5069551;28;20372;-62
2023/05/31 07:55:55;;;;;;;8.25;4.25;;;18.80;99.90;;;;;;5070998;28;20042;-63
2023/05/31 07:58:20;;;;;;;7.20;4.47;;;18.90;99.90;;;;;;5071375;28;20051;-61
2023/05/31 08:00:46;;;;;;;12.20;5.22;;;19.00;99.90;;;;;;5069871;28;20048;-62
2023/05/31 08:03:12;;;;;;;7.72;4.70;;;19.10;99.90;;;;;;5070244;28;20131;-63
2023/05/31 08:05:38;;;;;;;10.23;3.95;;;19.10;99.90;;;;;;5071968;28;20519;-64
2023/05/31 08:08:05;;;;;;;7.53;4.20;;;19.30;99.90;;;;;;5070494;28;20115;-63
2023/05/31 08:10:32;;;;;;;5.97;3.83;;;19.40;99.90;;;;;;5071963;28;20040;-63
2023/05/31 08:12:57;;;;;;;10.93;5.03;;;19.50;99.90;;;;;;5070522;28;20045;-63
2023/05/31 08:15:23;;;;;;;6.28;4.13;;;19.60;99.90;;;;;;5070271;28;20395;-64
2023/05/31 08:17:49;;;;;;;8.25;4.40;;;19.70;99.90;;;;;;5069863;28;20052;-62
2023/05/31 08:20:16;;;;;;;7.40;4.28;;;19.80;99.90;;;;;;5067966;28;20036;-61
2023/05/31 08:22:44;;;;;;;6.50;4.15;;;19.90;99.90;;;;;;5066594;28;20452;-63
2023/05/31 08:25:12;;;;;;;6.55;3.60;;;20.00;99.90;;;;;;5069873;28;20040;-61
2023/05/31 08:27:40;;;;;;;6.47;3.80;;;20.20;99.90;;;;;;5071369;28;20040;-63
2023/05/31 08:30:07;;;;;;;9.77;4.35;;;20.30;99.90;;;;;;5052573;28;20051;-64
2023/05/31 08:32:33;;;;;;;6.88;3.55;;;20.50;99.90;;;;;;5067915;28;20142;-62
2023/05/31 08:34:59;;;;;;;7.35;3.55;;;20.50;99.90;;;;;;5071267;28;20493;-63
2023/05/31 08:37:27;;;;;;;5.95;3.25;;;20.70;99.90;;;;;;5070883;28;20033;-62
2023/05/31 08:39:53;;;;;;;6.07;3.60;;;20.80;99.90;;;;;;5069654;28;20032;-65
2023/05/31 08:42:27;;;;;;;8.20;3.30;;;21.00;99.90;;;;;;5066812;28;20081;-62
2023/05/31 08:44:54;;;;;;;8.50;4.15;;;21.10;99.90;;;;;;5067726;28;20124;-63
2023/05/31 08:47:45;;;;;;;7.38;3.30;;;21.20;99.90;;;;;;5069581;28;20059;-63
2023/05/31 08:50:12;;;;;;;7.32;3.40;;;21.30;99.90;;;;;;5070568;28;20071;-60
2023/05/31 08:52:39;;;;;;;5.82;3.05;;;21.30;99.90;;;;;;5070403;28;20098;-63
2023/05/31 08:55:06;;;;;;;6.63;3.13;;;21.50;99.90;;;;;;5067415;28;20094;-63
2023/05/31 08:57:33;;;;;;;6.72;3.13;;;21.60;99.90;;;;;;5069753;28;20045;-62
2023/05/31 09:00:04;;;;;;;6.22;3.50;;;21.70;99.90;;;;;;5070859;28;20041;-64
2023/05/31 09:02:30;;;;;;;5.90;3.30;;;21.90;99.90;;;;;;5052584;28;20158;-61
2023/05/31 09:04:56;;;;;;;6.25;3.88;;;22.00;99.80;;;;;;5069017;28;20067;-63
2023/05/31 09:07:22;;;;;;;8.23;3.78;;;22.00;99.20;;;;;;5071186;28;20455;-61
2023/05/31 09:09:48;;;;;;;6.05;3.25;;;22.10;99.20;;;;;;5068949;28;20070;-66
2023/05/31 09:12:15;;;;;;;6.57;3.33;;;22.20;98.80;;;;;;5070551;28;20048;-64
2023/05/31 09:14:41;;;;;;;9.30;3.88;;;22.20;98.50;;;;;;5069325;28;20056;-64
2023/05/31 09:17:07;;;;;;;6.40;3.50;;;22.40;98.80;;;;;;5070168;28;20048;-60
2023/05/31 09:19:32;;;;;;;8.52;3.65;;;22.50;98.40;;;;;;5069530;28;20078;-62
2023/05/31 09:21:58;;;;;;;9.80;3.50;;;22.60;97.80;;;;;;5069525;28;20056;-67
2023/05/31 09:24:24;;;;;;;9.38;4.05;;;22.70;98.10;;;;;;5052547;28;20053;-64
2023/05/31 09:26:52;;;;;;;6.57;3.30;;;22.80;97.70;;;;;;5070746;28;20149;-64
2023/05/31 09:29:19;;;;;;;8.52;3.67;;;22.90;97.70;;;;;;5071157;28;20048;-64
2023/05/31 09:31:45;;;;;;;7.68;4.15;;;22.80;96.60;;;;;;5069689;28;20188;-63
2023/05/31 09:34:26;;;;;;;7.75;3.60;;;22.70;96.90;;;;;;5070316;28;20047;-64
2023/05/31 09:36:52;;;;;;;7.32;3.17;;;22.90;97.40;;;;;;5069523;28;20036;-64
2023/05/31 09:39:19;;;;;;;6.53;3.90;;;23.00;97.20;;;;;;5069720;28;20078;-64
2023/05/31 09:41:49;;;;;;;11.85;4.50;;;23.20;96.90;;;;;;5068724;28;20487;-63
2023/05/31 09:44:15;;;;;;;6.95;4.00;;;23.20;96.30;;;;;;5069483;28;20511;-63
2023/05/31 09:46:41;;;;;;;7.15;4.10;;;23.10;96.10;;;;;;5069513;28;20101;-62
2023/05/31 09:49:09;;;;;;;8.75;3.75;;;23.20;96.10;;;;;;5069164;28;20044;-64
2023/05/31 09:51:35;;;;;;;7.78;3.55;;;23.30;96.30;;;;;;5069727;28;20055;-64
2023/05/31 09:54:09;;;;;;;8.20;3.65;;;23.50;96.60;;;;;;5068334;28;20052;-62
2023/05/31 09:56:40;;;;;;;6.95;3.58;;;23.70;96.10;;;;;;5068469;28;20438;-62
2023/05/31 09:59:06;;;;;;;6.28;3.70;;;23.90;95.70;;;;;;5052110;28;20071;-64
2023/05/31 10:01:33;;;;;;;7.80;3.63;;;24.00;95.40;;;;;;5064911;28;20059;-62
2023/05/31 10:04:03;;;;;;;8.50;3.50;;;24.10;94.80;;;;;;5066853;28;20081;-64
2023/05/31 10:06:31;;;;;;;6.25;3.78;;;24.20;95.10;;;;;;5067746;28;20040;-65
2023/05/31 10:08:56;;;;;;;7.43;3.80;;;24.30;94.40;;;;;;5067895;28;20039;-63
2023/05/31 10:11:26;;;;;;;6.28;3.13;;;24.40;93.80;;;;;;5067533;28;20407;-63
2023/05/31 10:13:58;;;;;;;6.50;3.78;;;24.40;93.80;;;;;;5052185;28;20055;-63
2023/05/31 10:16:26;;;;;;;7.00;3.60;;;24.30;93.60;;;;;;5068183;28;20444;-63
2023/05/31 10:18:58;;;;;;;7.38;3.42;;;24.40;93.70;;;;;;5069529;28;20040;-62
2023/05/31 10:21:25;;;;;;;6.57;3.55;;;24.40;94.10;;;;;;5066706;28;20514;-64
2023/05/31 10:23:54;;;;;;;7.57;3.85;;;24.60;93.80;;;;;;5065381;28;20063;-64
2023/05/31 10:26:21;;;;;;;5.65;3.22;;;24.80;93.40;;;;;;5067583;28;20489;-63
2023/05/31 10:29:04;;;;;;;5.90;3.75;;;24.90;93.40;;;;;;5068153;28;20045;-63
2023/05/31 10:31:33;;;;;;;7.03;3.72;;;25.00;93.30;;;;;;5068630;28;20041;-62
2023/05/31 10:34:12;;;;;;;11.15;3.70;;;25.00;93.40;;;;;;5063775;28;20248;-63
2023/05/31 10:36:38;;;;;;;9.38;3.92;;;25.10;91.90;;;;;;5067632;28;20119;-64
2023/05/31 10:39:13;;;;;;;6.80;3.10;;;25.00;92.00;;;;;;5069077;28;20090;-63
2023/05/31 10:41:44;;;;;;;7.25;3.30;;;25.00;91.90;;;;;;5067507;28;20071;-65
2023/05/31 10:44:17;;;;;;;9.30;3.30;;;25.20;91.90;;;;;;5065983;28;20045;-61
2023/05/31 10:46:46;;;;;;;5.07;2.95;;;25.10;91.40;;;;;;5064797;28;20039;-65
2023/05/31 10:49:15;;;;;;;8.30;3.65;;;25.30;91.80;;;;;;5068703;28;20149;-61
2023/05/31 10:51:42;;;;;;;6.75;3.67;;;25.30;91.10;;;;;;5067878;28;20064;-64
2023/05/31 10:54:08;;;;;;;5.75;2.90;;;25.10;91.50;;;;;;5065684;28;20049;-64
2023/05/31 10:56:38;;;;;;;5.80;3.15;;;25.30;91.70;;;;;;5048018;28;20036;-62
2023/05/31 10:59:08;;;;;;;6.75;3.10;;;25.30;91.30;;;;;;5050845;28;20053;-64
2023/05/31 11:01:35;;;;;;;6.70;3.30;;;25.40;90.90;;;;;;5067373;28;20041;-63
2023/05/31 11:04:01;;;;;;;6.40;3.17;;;25.40;90.30;;;;;;5068479;28;20503;-63
2023/05/31 11:06:32;;;;;;;10.27;3.00;;;25.30;90.10;;;;;;5067091;28;20056;-63
2023/05/31 11:09:07;;;;;;;4.72;2.83;;;25.40;90.20;;;;;;5067318;28;20040;-63
2023/05/31 11:11:33;;;;;;;6.07;3.05;;;25.30;89.90;;;;;;5067986;28;20173;-64
2023/05/31 11:14:05;;;;;;;9.50;3.67;;;25.20;90.10;;;;;;5067853;28;20789;-66
2023/05/31 11:16:32;;;;;;;6.82;3.08;;;25.30;90.60;;;;;;5066695;28;20036;-64
2023/05/31 11:19:13;;;;;;;9.05;3.35;;;25.40;90.30;;;;;;5070620;28;20119;-63
2023/05/31 11:21:46;;;;;;;5.38;2.80;;;25.40;90.30;;;;;;5071649;28;20040;-62
2023/05/31 11:24:38;;;;;;;7.97;3.08;;;25.40;89.10;;;;;;5071893;28;20066;-63
2023/05/31 11:27:05;;;;;;;7.35;3.00;;;25.20;87.20;;;;;;5050230;28;20049;-63
2023/05/31 11:29:52;;;;;;;6.30;2.80;;;25.00;89.60;;;;;;5034038;28;20052;-62
2023/05/31 11:32:42;;;;;;;5.95;2.40;;;25.00;89.80;;;;;;5016875;28;20044;-64
2023/05/31 11:35:14;;;;;;;5.30;3.15;;;25.00;90.30;;;;;;5049832;28;20507;-64
2023/05/31 11:37:42;;;;;;;7.30;2.80;;;25.00;89.50;;;;;;5033073;28;20407;-63
2023/05/31 11:40:10;;;;;;;7.38;2.72;;;25.10;90.30;;;;;;5032825;28;20110;-63
2023/05/31 11:42:45;;;;;;;5.97;3.22;;;25.00;90.30;;;;;;5033017;28;20049;-62
2023/05/31 11:45:17;;;;;;;5.57;2.80;;;25.20;89.60;;;;;;5032581;28;20057;-64
2023/05/31 11:48:14;;;;;;;7.38;2.85;;;25.00;89.20;;;;;;5049282;28;20040;-64
2023/05/31 11:50:42;;;;;;;8.88;2.90;;;25.00;90.30;;;;;;5032581;28;20037;-62
2023/05/31 11:53:10;;;;;;;4.95;2.75;;;25.00;89.20;;;;;;5049185;28;20122;-64
2023/05/31 11:55:36;;;;;;;6.30;2.90;;;25.00;89.30;;;;;;5049481;28;20041;-63
2023/05/31 11:58:06;;;;;;;7.78;3.25;;;25.00;89.90;;;;;;5032596;28;20137;-62
2023/05/31 12:00:32;;;;;;;7.00;3.33;;;24.80;90.70;;;;;;5032912;28;20045;-63
2023/05/31 12:02:58;;;;;;;7.07;3.15;;;24.70;91.10;;;;;;5050588;28;20138;-61
2023/05/31 12:05:24;;;;;;;9.55;3.42;;;24.30;90.90;;;;;;5071084;28;20040;-61
2023/05/31 12:07:53;;;;;;;9.35;3.35;;;24.30;91.70;;;;;;5069183;28;20149;-64
2023/05/31 12:10:19;;;;;;;9.18;3.80;;;24.20;92.90;;;;;;5068087;28;20048;-63
2023/05/31 12:12:46;;;;;;;7.88;3.53;;;23.90;93.00;;;;;;5070494;28;20041;-63
2023/05/31 12:15:12;;;;;;;6.28;3.17;;;23.80;93.20;;;;;;5071698;28;20395;-63
2023/05/31 12:17:39;;;;;;;12.45;4.30;;;23.80;93.80;;;;;;5071602;28;20039;-65
2023/05/31 12:20:05;;;;;;;8.90;3.58;;;23.80;93.60;;;;;;5070138;28;20036;-64
2023/05/31 12:22:31;;;;;;;9.32;3.85;;;23.70;93.80;;;;;;5070655;28;20105;-62
2023/05/31 12:24:56;;;;;;;11.52;4.28;;;23.70;94.10;;;;;;5069473;28;20529;-62
2023/05/31 12:27:25;;;;;;;10.63;4.20;;;23.60;94.40;;;;;;5071282;28;20378;-62
2023/05/31 12:29:56;;;;;;;10.02;4.13;;;23.60;94.20;;;;;;5069782;28;20036;-64
2023/05/31 12:32:26;;;;;;;9.90;3.90;;;23.50;94.40;;;;;;5071194;28;20086;-65
2023/05/31 12:34:52;;;;;;;9.50;4.15;;;23.50;94.80;;;;;;5071623;28;20097;-62
2023/05/31 12:37:18;;;;;;;8.88;3.95;;;23.40;94.60;;;;;;5069631;28;20418;-64
2023/05/31 12:39:45;;;;;;;9.50;4.20;;;23.40;94.30;;;;;;5067912;28;20048;-62
2023/05/31 12:42:11;;;;;;;9.15;3.97;;;23.40;94.50;;;;;;5071249;28;20487;-62
2023/05/31 12:44:38;;;;;;;9.20;4.55;;;23.10;94.70;;;;;;5069574;28;20086;-63
2023/05/31 12:47:07;;;;;;;10.20;4.32;;;23.10;94.90;;;;;;5071175;28;20093;-61
2023/05/31 12:49:34;;;;;;;9.63;5.05;;;23.10;94.90;;;;;;5070195;28;20049;-64